Aix Les Milles, France

5:31 AM CET on February 11, 2016 (GMT +0100)
Marseille / Provence | | Change Station
CLOSE
Current Station
Airport
Location: Marseille,
Elevation: 105 ft
Nearby Weather Stations

Elev 105 ft 43.44 °N, 5.22 °E | Updated 31 minutes ago

Clear
Clear
34 °F
Feels Like 34 °F
N
1
Wind Variable Wind from East

Today
High -- | Low -- °F
--% Chance of Precip.
Yesterday
High -- | Low -- °F
Precip. -- in
Pressure 29.80 in
Visibility -9999.0 miles
Clouds
Dew Point 30 °F
Humidity 87%
Rainfall 0.00 in
Snow Depth Not available.
7:43 AM 6:02 PM
Waxing Crescent, 9% visible
METAR LFML 110400Z 09001KT CAVOK 01/M01 Q1009 NOSIG
Pressure 29.80 in
Visibility -9999.0 miles
Clouds
Dew Point 30 °F
Humidity 87%
Rainfall 0.00 in
Snow Depth Not available.
7:43 AM 6:02 PM
Waxing Crescent, 9% visible
METAR LFML 110400Z 09001KT CAVOK 01/M01 Q1009 NOSIG

10-Day Weather Forecast

Almanac

Astronomy

Feb. 11, 2016 Rise Set
Actual Time
Civil Twilight
Nautical Twilight
Astronomical Twilight
Moon
Length of Visible Light
Length of Day
Tomorrow will be .
, % of the Moon is Illuminated

Today's Extremes

Country Highs Country Lows

Community

WunderPhotos

Upload Photos

1,892,014 photos uploaded!

WunderBlog® & News

Nearby

Air Quality

  Air Quality AQ Index Pollutant
Not available.

Snow Depth

Station Depth Elevation

Earthquake Activity

City Distance Mag. Time & Date
Minimum magnitude displayed is 2.5.

Coastal Water Temperatures

Place Temperature

Stations

Nearby Weather Stations

Station Location Temp. Windchill Dew Point Humidity Wind Precip. Elev Updated Type